createdAt,value
2017-09-18T00:01:25.638Z,1.60
2017-09-18T00:03:54.897Z,1.53
2017-09-18T00:06:24.150Z,1.80
2017-09-18T00:08:53.646Z,1.37
2017-09-18T00:11:22.880Z,1.57
2017-09-18T00:13:52.122Z,1.30
2017-09-18T00:16:21.371Z,1.30
2017-09-18T00:18:50.617Z,1.33
2017-09-18T00:21:20.618Z,1.40
2017-09-18T00:23:49.847Z,1.20
2017-09-18T00:26:19.107Z,1.50
2017-09-18T00:28:48.353Z,1.83
2017-09-18T00:31:18.430Z,1.50
2017-09-18T00:33:49.296Z,1.30
2017-09-18T00:36:18.534Z,1.57
2017-09-18T00:38:48.425Z,1.60
2017-09-18T00:41:17.695Z,1.47
2017-09-18T00:43:47.693Z,1.20
2017-09-18T00:46:16.963Z,1.60
2017-09-18T00:48:46.190Z,1.30
2017-09-18T00:51:15.417Z,1.57
2017-09-18T00:53:45.434Z,1.77
2017-09-18T00:56:14.661Z,1.20
2017-09-18T00:58:44.770Z,1.60
2017-09-18T01:01:14.038Z,1.40
2017-09-18T01:03:44.079Z,1.57
2017-09-18T01:06:13.354Z,1.87
2017-09-18T01:08:42.572Z,1.60
2017-09-18T01:11:12.604Z,2.03
2017-09-18T01:13:41.946Z,2.00
2017-09-18T01:16:11.363Z,1.87
2017-09-18T01:18:40.786Z,1.40
2017-09-18T01:21:11.185Z,1.97
2017-09-18T01:23:41.203Z,1.60
2017-09-18T01:26:10.423Z,1.70
2017-09-18T01:28:39.782Z,2.00
2017-09-18T01:31:09.010Z,2.00
2017-09-18T01:33:38.262Z,1.60
2017-09-18T01:36:08.250Z,1.70
2017-09-18T01:38:37.502Z,1.73
2017-09-18T01:41:06.771Z,1.90
2017-09-18T01:43:36.766Z,1.60
2017-09-18T01:46:06.007Z,2.20
2017-09-18T01:48:35.269Z,2.00
2017-09-18T01:51:04.614Z,2.30
2017-09-18T01:53:33.914Z,2.00
2017-09-18T01:56:03.124Z,1.70
2017-09-18T01:58:32.382Z,1.83
2017-09-18T02:01:01.617Z,1.83
2017-09-18T02:03:30.982Z,2.10
2017-09-18T02:06:00.219Z,1.67
2017-09-18T02:08:29.470Z,2.30
2017-09-18T02:10:58.753Z,2.27
2017-09-18T02:13:27.999Z,2.60
2017-09-18T02:15:57.286Z,1.63
2017-09-18T02:18:26.682Z,1.93
2017-09-18T02:20:56.293Z,2.40
2017-09-18T02:23:25.535Z,1.87
2017-09-18T02:25:54.809Z,1.80
2017-09-18T02:28:24.116Z,2.33
2017-09-18T02:30:54.174Z,2.40
2017-09-18T02:33:23.570Z,1.83
2017-09-18T02:35:52.834Z,2.00
2017-09-18T02:38:22.854Z,1.33
2017-09-18T02:40:52.109Z,1.57
2017-09-18T02:43:21.340Z,1.83
2017-09-18T02:45:50.586Z,1.60
2017-09-18T02:48:20.621Z,2.10
2017-09-18T02:50:49.854Z,1.60
2017-09-18T02:53:19.161Z,2.10
2017-09-18T02:55:48.389Z,2.00
2017-09-18T02:58:17.759Z,1.83
2017-09-18T03:00:47.264Z,2.10
2017-09-18T03:03:16.569Z,1.47
2017-09-18T03:05:45.870Z,2.17
2017-09-18T03:08:15.136Z,1.87
2017-09-18T03:10:44.370Z,2.27
2017-09-18T03:13:14.466Z,1.70
2017-09-18T03:15:43.882Z,1.93
2017-09-18T03:18:13.121Z,1.97
2017-09-18T03:20:42.496Z,2.00
2017-09-18T03:23:11.719Z,2.00
2017-09-18T03:25:40.951Z,1.97
2017-09-18T03:28:10.204Z,2.20
2017-09-18T03:30:39.495Z,2.03
2017-09-18T03:33:08.797Z,1.30
2017-09-18T03:35:38.033Z,1.73
2017-09-18T03:38:07.281Z,2.23
2017-09-18T03:40:36.506Z,2.00
2017-09-18T03:43:06.513Z,1.70
2017-09-18T03:45:35.762Z,1.73
2017-09-18T03:48:05.011Z,2.00
2017-09-18T03:50:37.275Z,1.80
2017-09-18T03:53:06.505Z,1.60
2017-09-18T03:55:36.519Z,2.23
2017-09-18T03:58:05.755Z,1.60
2017-09-18T04:00:35.038Z,2.07
2017-09-18T04:03:04.796Z,1.30
2017-09-18T04:05:34.039Z,1.70
2017-09-18T04:08:04.057Z,2.20
2017-09-18T04:10:33.382Z,1.73
2017-09-18T04:13:02.626Z,1.80
2017-09-18T04:15:31.858Z,2.10
2017-09-18T04:18:01.898Z,2.00
2017-09-18T04:20:31.231Z,2.17
2017-09-18T04:23:00.510Z,1.93
2017-09-18T04:25:29.778Z,1.47
2017-09-18T04:27:59.031Z,1.73
2017-09-18T04:30:28.453Z,1.80
2017-09-18T04:32:57.709Z,1.43
2017-09-18T04:35:26.977Z,1.50
2017-09-18T04:37:56.222Z,2.23
2017-09-18T04:40:25.461Z,1.90
2017-09-18T04:42:54.709Z,2.33
2017-09-18T04:45:23.937Z,2.50
2017-09-18T04:47:53.209Z,1.70
2017-09-18T04:50:22.560Z,2.27
2017-09-18T04:52:51.802Z,2.07
2017-09-18T04:55:21.059Z,1.73
2017-09-18T04:57:50.554Z,2.00
2017-09-18T05:00:19.881Z,1.70
2017-09-18T05:02:49.886Z,2.67
2017-09-18T05:05:19.354Z,2.10
2017-09-18T05:07:48.646Z,1.80
2017-09-18T05:10:17.886Z,1.70
2017-09-18T05:12:47.146Z,2.07
2017-09-18T05:15:16.369Z,1.97
2017-09-18T05:17:45.627Z,2.20
2017-09-18T05:20:14.906Z,1.87
2017-09-18T05:22:44.146Z,1.73
2017-09-18T05:25:13.541Z,2.00
2017-09-18T05:27:42.850Z,2.43
2017-09-18T05:30:12.867Z,1.97
2017-09-18T05:32:42.100Z,1.33
2017-09-18T05:35:11.402Z,1.73
2017-09-18T05:37:41.387Z,1.93
2017-09-18T05:40:10.675Z,1.40
2017-09-18T05:42:39.942Z,1.70
2017-09-18T05:45:09.178Z,1.53
2017-09-18T05:47:38.689Z,1.90
2017-09-18T05:50:08.722Z,1.63
2017-09-18T05:52:37.950Z,1.80
2017-09-18T05:55:07.213Z,1.60
2017-09-18T05:57:36.465Z,1.70
2017-09-18T06:00:05.697Z,1.60
2017-09-18T06:02:34.961Z,1.67
2017-09-18T06:05:04.197Z,2.00
2017-09-18T06:07:33.467Z,1.47
2017-09-18T06:10:02.728Z,1.50
2017-09-18T06:12:31.982Z,2.00
2017-09-18T06:15:01.331Z,2.47
2017-09-18T06:17:30.602Z,2.83
2017-09-18T06:19:59.861Z,2.20
2017-09-18T06:22:29.109Z,2.20
2017-09-18T06:24:58.373Z,2.13
2017-09-18T06:27:28.470Z,2.70
2017-09-18T06:29:57.718Z,2.50
2017-09-18T06:32:26.986Z,2.23
2017-09-18T06:34:56.327Z,2.90
2017-09-18T06:37:25.599Z,2.10
2017-09-18T06:39:54.857Z,2.87
2017-09-18T06:42:24.450Z,2.80
2017-09-18T06:44:53.718Z,2.90
2017-09-18T06:47:22.964Z,3.30
2017-09-18T06:49:52.288Z,2.67
2017-09-18T06:52:22.274Z,2.80
2017-09-18T06:54:51.543Z,2.20
2017-09-18T06:57:20.789Z,2.80
2017-09-18T06:59:50.630Z,3.43
2017-09-18T07:02:19.952Z,3.20
2017-09-18T07:04:49.205Z,2.50
2017-09-18T07:07:18.522Z,2.90
2017-09-18T07:09:47.774Z,2.63
2017-09-18T07:12:17.085Z,2.80
2017-09-18T07:14:46.319Z,3.23
2017-09-18T07:17:15.605Z,3.17
2017-09-18T07:19:45.613Z,2.53
2017-09-18T07:22:15.034Z,2.50
2017-09-18T07:24:44.314Z,2.63
2017-09-18T07:27:14.357Z,2.30
2017-09-18T07:29:43.656Z,2.43
2017-09-18T07:32:12.923Z,3.00
2017-09-18T07:34:42.950Z,2.57
2017-09-18T07:37:12.967Z,3.17
2017-09-18T07:39:42.268Z,2.97
2017-09-18T07:42:11.490Z,2.70
2017-09-18T07:44:40.886Z,2.60
2017-09-18T07:47:11.673Z,2.13
2017-09-18T07:49:40.929Z,2.70
2017-09-18T07:52:10.277Z,2.80
2017-09-18T07:54:39.715Z,2.63
2017-09-18T07:57:08.954Z,2.57
2017-09-18T07:59:38.229Z,2.63
2017-09-18T08:02:07.470Z,2.00
2017-09-18T08:04:36.747Z,1.87
2017-09-18T08:07:06.005Z,2.13
2017-09-18T08:09:36.134Z,1.80
2017-09-18T08:12:05.396Z,1.83
2017-09-18T08:14:34.737Z,1.90
2017-09-18T08:17:04.868Z,2.30
2017-09-18T08:19:35.182Z,2.90
2017-09-18T08:22:05.210Z,3.13
2017-09-18T08:24:34.465Z,3.40
2017-09-18T08:27:03.716Z,3.77
2017-09-18T08:29:33.222Z,3.50
2017-09-18T08:32:03.231Z,3.50
2017-09-18T08:34:32.474Z,2.80
2017-09-18T08:37:01.740Z,2.60
2017-09-18T08:39:31.009Z,2.70
2017-09-18T08:42:00.251Z,2.70
2017-09-18T08:44:29.613Z,2.30
2017-09-18T08:46:58.865Z,2.20
2017-09-18T08:49:28.277Z,2.33
2017-09-18T08:51:57.567Z,2.70
2017-09-18T08:54:26.938Z,2.77
2017-09-18T08:56:56.867Z,2.10
2017-09-18T08:59:27.003Z,2.37
2017-09-18T09:01:56.398Z,2.20
2017-09-18T09:04:26.434Z,2.37
2017-09-18T09:06:55.717Z,2.73
2017-09-18T09:09:25.746Z,2.20
2017-09-18T09:11:55.001Z,2.50
2017-09-18T09:14:24.271Z,2.33
2017-09-18T09:16:53.519Z,2.40
2017-09-18T09:19:22.921Z,2.70
2017-09-18T09:21:52.246Z,2.57
2017-09-18T09:24:22.251Z,2.40
2017-09-18T09:26:51.542Z,2.93
2017-09-18T09:29:20.795Z,2.57
2017-09-18T09:31:50.264Z,2.53
2017-09-18T09:34:20.379Z,3.00
2017-09-18T09:36:50.425Z,3.10
2017-09-18T09:39:19.800Z,2.87
2017-09-18T09:41:49.941Z,3.20
2017-09-18T09:44:19.969Z,3.10
2017-09-18T09:46:49.254Z,4.20
2017-09-18T09:49:18.529Z,3.10
2017-09-18T09:51:47.774Z,2.80
2017-09-18T09:54:17.076Z,3.63
2017-09-18T09:56:46.411Z,3.67
2017-09-18T09:59:15.677Z,3.73
2017-09-18T10:01:44.946Z,3.10
2017-09-18T10:04:15.258Z,3.10
2017-09-18T10:06:44.570Z,3.70
2017-09-18T10:09:14.697Z,3.53
2017-09-18T10:11:44.797Z,3.67
2017-09-18T10:14:14.031Z,2.87
2017-09-18T10:16:43.315Z,2.87
2017-09-18T10:19:12.701Z,3.00
2017-09-18T10:21:42.222Z,2.33
2017-09-18T10:24:11.482Z,2.30
2017-09-18T10:26:40.939Z,2.60
2017-09-18T10:29:10.169Z,2.07
2017-09-18T10:31:39.499Z,2.67
2017-09-18T10:34:14.060Z,2.10
2017-09-18T10:36:43.307Z,2.00
2017-09-18T10:39:12.551Z,2.10
2017-09-18T10:41:42.582Z,1.60
2017-09-18T10:44:11.830Z,2.37
2017-09-18T10:46:41.206Z,1.77
2017-09-18T10:49:10.517Z,2.10
2017-09-18T10:51:39.790Z,2.03
2017-09-18T10:54:09.074Z,2.17
2017-09-18T10:56:38.359Z,2.13
2017-09-18T10:59:08.119Z,2.10
2017-09-18T11:01:37.377Z,2.00
2017-09-18T11:04:06.656Z,1.57
2017-09-18T11:06:36.052Z,1.80
2017-09-18T11:09:05.294Z,2.30
2017-09-18T11:11:34.602Z,1.20
2017-09-18T11:14:04.617Z,1.77
2017-09-18T11:16:34.106Z,1.40
2017-09-18T11:19:03.496Z,1.70
2017-09-18T11:21:32.782Z,2.50
2017-09-18T11:24:02.234Z,1.50
2017-09-18T11:26:32.246Z,1.50
2017-09-18T11:29:03.014Z,2.37
2017-09-18T11:31:32.575Z,1.80
2017-09-18T11:34:01.894Z,1.50
2017-09-18T11:36:31.942Z,1.87
2017-09-18T11:39:01.430Z,2.17
2017-09-18T11:41:30.664Z,2.67
2017-09-18T11:43:59.938Z,2.50
2017-09-18T11:46:29.952Z,2.53
2017-09-18T11:48:59.232Z,3.30
2017-09-18T11:51:28.558Z,3.93
2017-09-18T11:53:57.806Z,3.07
2017-09-18T11:56:27.085Z,3.93
2017-09-18T11:58:56.443Z,4.17
2017-09-18T12:01:27.286Z,3.77
2017-09-18T12:03:57.303Z,4.90
2017-09-18T12:06:26.549Z,4.53
2017-09-18T12:08:55.830Z,4.00
2017-09-18T12:11:25.138Z,4.20
2017-09-18T12:13:55.165Z,3.70
2017-09-18T12:16:24.527Z,4.50
2017-09-18T12:18:53.774Z,4.43
2017-09-18T12:21:23.038Z,3.90
2017-09-18T12:23:52.293Z,4.53
2017-09-18T12:26:21.730Z,4.17
2017-09-18T12:28:51.761Z,3.53
2017-09-18T12:31:21.034Z,4.40
2017-09-18T12:33:50.290Z,4.33
2017-09-18T12:36:19.567Z,4.17
2017-09-18T12:38:49.598Z,4.10
2017-09-18T12:41:18.918Z,5.13
2017-09-18T12:43:48.182Z,5.37
2017-09-18T12:46:18.198Z,4.70
2017-09-18T12:48:47.622Z,3.97
2017-09-18T12:51:18.474Z,5.60
2017-09-18T12:53:47.733Z,5.43
2017-09-18T12:56:17.138Z,5.10
2017-09-18T12:58:47.173Z,5.93
2017-09-18T13:01:16.442Z,5.60
2017-09-18T13:03:45.694Z,5.20
2017-09-18T13:06:14.972Z,5.70
2017-09-18T13:08:45.168Z,5.27
2017-09-18T13:11:14.477Z,5.40
2017-09-18T13:13:44.715Z,4.70
2017-09-18T13:16:14.739Z,4.83
2017-09-18T13:18:44.859Z,4.87
2017-09-18T13:21:14.119Z,4.83
2017-09-18T13:23:43.415Z,5.13
2017-09-18T13:26:12.863Z,6.03
2017-09-18T13:28:42.882Z,5.37
2017-09-18T13:31:12.130Z,5.23
2017-09-18T13:33:41.380Z,5.60
2017-09-18T13:36:11.494Z,5.03
2017-09-18T13:38:40.750Z,5.07
2017-09-18T13:41:10.020Z,5.87
2017-09-18T13:43:39.257Z,4.90
2017-09-18T13:46:08.502Z,4.03
2017-09-18T13:48:38.706Z,4.30
2017-09-18T13:51:07.951Z,3.40
2017-09-18T13:53:37.326Z,3.33
2017-09-18T13:56:07.290Z,2.73
2017-09-18T13:58:36.562Z,3.17
2017-09-18T14:01:05.958Z,2.70
2017-09-18T14:03:36.049Z,2.50
2017-09-18T14:06:05.366Z,2.20
2017-09-18T14:08:35.366Z,2.63
2017-09-18T14:14:09.969Z,2.27
2017-09-18T14:16:39.326Z,3.17
2017-09-18T14:19:08.822Z,2.47
2017-09-18T14:21:38.118Z,2.90
2017-09-18T14:24:07.398Z,1.73
2017-09-18T14:26:36.695Z,1.80
2017-09-18T14:29:05.959Z,1.47
2017-09-18T14:31:35.980Z,1.80
2017-09-18T14:39:42.003Z,1.80
2017-09-18T14:42:11.248Z,1.83
2017-09-18T14:44:40.589Z,1.60
2017-09-18T14:47:10.615Z,1.63
2017-09-18T14:49:39.865Z,1.20
2017-09-18T14:52:09.132Z,1.53
2017-09-18T14:54:38.374Z,1.90
2017-09-18T14:57:08.435Z,1.90
2017-09-18T14:59:37.694Z,2.20
2017-09-18T15:02:07.035Z,2.07
2017-09-18T15:04:36.518Z,1.60
2017-09-18T15:07:06.606Z,1.90
2017-09-18T15:09:35.878Z,2.03
2017-09-18T15:12:05.230Z,2.30
2017-09-18T15:14:35.319Z,1.70
2017-09-18T15:17:04.556Z,1.83
2017-09-18T15:19:33.815Z,1.27
2017-09-18T15:22:03.050Z,1.70
2017-09-18T15:24:33.155Z,1.90
2017-09-18T15:27:02.809Z,1.93
2017-09-18T15:29:32.838Z,2.10
2017-09-18T15:32:02.106Z,1.70
2017-09-18T15:34:32.149Z,1.60
2017-09-18T15:37:01.437Z,1.37
2017-09-18T15:39:30.850Z,1.77
2017-09-18T15:42:00.132Z,1.80
2017-09-18T15:44:29.369Z,1.20
2017-09-18T15:46:58.643Z,1.57
2017-09-18T15:49:28.498Z,1.50
2017-09-18T15:51:57.772Z,1.47
2017-09-18T15:54:27.038Z,1.37
2017-09-18T15:56:57.069Z,1.40
2017-09-18T15:59:26.331Z,1.50
2017-09-18T16:01:55.603Z,1.87
2017-09-18T16:04:24.937Z,1.90
2017-09-18T16:06:54.193Z,1.60
2017-09-18T16:09:23.549Z,1.70
2017-09-18T16:11:52.905Z,1.90
2017-09-18T16:14:22.162Z,1.40
2017-09-18T16:16:51.483Z,1.57
2017-09-18T16:19:22.231Z,2.10
2017-09-18T16:21:51.508Z,1.90
2017-09-18T16:24:22.371Z,1.70
2017-09-18T16:26:51.638Z,1.80
2017-09-18T16:29:20.878Z,1.40
2017-09-18T16:31:50.161Z,1.60
2017-09-18T16:34:19.383Z,1.93
2017-09-18T16:36:48.654Z,1.67
2017-09-18T16:39:17.980Z,1.80
2017-09-18T16:41:47.208Z,1.77
2017-09-18T16:44:16.450Z,1.80
2017-09-18T16:46:45.718Z,2.27
2017-09-18T16:49:14.985Z,1.60
2017-09-18T16:51:44.308Z,1.43
2017-09-18T16:54:13.819Z,1.20
2017-09-18T16:56:43.163Z,1.90
2017-09-18T16:59:13.400Z,1.30
2017-09-18T17:01:43.490Z,1.73
2017-09-18T17:04:14.343Z,1.37
2017-09-18T17:06:43.986Z,1.70
2017-09-18T17:09:14.281Z,2.10
2017-09-18T17:11:43.630Z,1.80
2017-09-18T17:14:12.957Z,2.20
2017-09-18T17:16:42.182Z,1.53
2017-09-18T17:19:11.537Z,1.80
2017-09-18T17:21:41.327Z,1.70
2017-09-18T17:24:11.392Z,1.83
2017-09-18T17:26:40.709Z,2.20
2017-09-18T17:29:10.431Z,2.00
2017-09-18T17:31:39.761Z,1.87
2017-09-18T17:34:09.113Z,1.97
2017-09-18T17:36:38.433Z,2.37
2017-09-18T17:39:08.496Z,2.07
2017-09-18T17:41:38.000Z,2.50
2017-09-18T17:44:07.274Z,1.70
2017-09-18T17:46:36.547Z,2.20
2017-09-18T17:49:05.808Z,1.90
2017-09-18T17:51:35.284Z,2.20
2017-09-18T17:54:05.305Z,2.80
2017-09-18T17:56:34.576Z,2.43
2017-09-18T17:59:03.918Z,2.10
2017-09-18T18:01:33.190Z,2.10
2017-09-18T18:04:02.612Z,2.30
2017-09-18T18:06:32.683Z,3.00
2017-09-18T18:09:02.030Z,2.37
2017-09-18T18:11:32.091Z,2.70
2017-09-18T18:14:01.475Z,2.10
2017-09-18T18:16:30.721Z,2.63
2017-09-18T18:18:59.999Z,2.30
2017-09-18T18:21:29.244Z,2.27
2017-09-18T18:23:58.578Z,2.57
2017-09-18T18:26:27.834Z,2.90
2017-09-18T18:28:57.114Z,2.10
2017-09-18T18:31:26.374Z,2.60
2017-09-18T18:33:55.681Z,2.77
2017-09-18T18:36:25.701Z,2.63
2017-09-18T18:38:54.967Z,2.33
2017-09-18T18:41:24.257Z,2.57
2017-09-18T18:43:53.496Z,2.63
2017-09-18T18:46:23.798Z,2.33
2017-09-18T18:48:53.840Z,2.13
2017-09-18T18:51:23.098Z,2.53
2017-09-18T18:53:52.390Z,2.40
2017-09-18T18:56:21.622Z,2.47
2017-09-18T18:58:51.658Z,2.73
2017-09-18T19:01:20.894Z,2.40
2017-09-18T19:03:50.360Z,2.43
2017-09-18T19:06:20.488Z,2.53
2017-09-18T19:08:50.536Z,2.53
2017-09-18T19:11:19.779Z,3.13
2017-09-18T19:13:49.018Z,2.67
2017-09-18T19:16:18.338Z,2.60
2017-09-18T19:18:47.580Z,2.30
2017-09-18T19:21:17.661Z,2.20
2017-09-18T19:23:46.897Z,2.20
2017-09-18T19:26:16.208Z,2.13
2017-09-18T19:28:45.484Z,2.43
2017-09-18T19:31:14.734Z,2.60
2017-09-18T19:33:44.222Z,2.37
2017-09-18T19:36:14.256Z,2.43
2017-09-18T19:38:43.515Z,2.60
2017-09-18T19:41:13.032Z,2.50
2017-09-18T19:43:42.256Z,2.30
2017-09-18T19:46:11.548Z,2.87
2017-09-18T19:48:41.591Z,2.67
2017-09-18T19:51:10.870Z,2.90
2017-09-18T19:53:40.149Z,2.60
2017-09-18T19:56:10.183Z,2.80
2017-09-18T19:58:40.222Z,2.00
2017-09-18T20:01:09.469Z,2.20
2017-09-18T20:03:38.730Z,2.77
2017-09-18T20:06:08.026Z,2.83
2017-09-18T20:08:37.322Z,2.20
2017-09-18T20:11:06.601Z,2.17
2017-09-18T20:13:35.871Z,2.47
2017-09-18T20:16:05.243Z,2.77
2017-09-18T20:18:34.490Z,3.33
2017-09-18T20:21:03.955Z,2.97
2017-09-18T20:23:33.221Z,2.60
2017-09-18T20:26:02.482Z,2.37
2017-09-18T20:28:31.765Z,2.10
2017-09-18T20:31:01.142Z,2.75
2017-09-18T20:33:30.426Z,2.23
2017-09-18T20:35:59.740Z,2.60
2017-09-18T20:38:29.009Z,2.87
2017-09-18T20:40:58.260Z,2.87
2017-09-18T20:43:27.490Z,2.30
2017-09-18T20:45:56.782Z,2.57
2017-09-18T20:48:26.052Z,3.40
2017-09-18T20:50:55.478Z,2.20
2017-09-18T20:53:24.752Z,2.27
2017-09-18T20:55:54.099Z,2.70
2017-09-18T20:58:23.663Z,2.53
2017-09-18T21:00:52.966Z,2.20
2017-09-18T21:03:22.369Z,2.43
2017-09-18T21:05:55.695Z,2.77
2017-09-18T21:08:25.147Z,2.23
2017-09-18T21:10:55.689Z,2.17
2017-09-18T21:13:24.992Z,2.10
2017-09-18T21:15:55.069Z,2.53
2017-09-18T21:18:24.630Z,2.00
2017-09-18T21:20:53.927Z,2.80
2017-09-18T21:23:23.259Z,2.30
2017-09-18T21:25:52.539Z,2.53
2017-09-18T21:28:21.791Z,2.63
2017-09-18T21:30:51.046Z,2.77
2017-09-18T21:33:21.275Z,2.60
2017-09-18T21:35:50.530Z,2.70
2017-09-18T21:38:19.822Z,2.77
2017-09-18T21:40:49.149Z,2.63
2017-09-18T21:43:19.193Z,2.37
2017-09-18T21:45:48.475Z,2.80
2017-09-18T21:48:18.552Z,2.80
2017-09-18T21:50:47.812Z,2.50
2017-09-18T21:53:17.089Z,2.63
2017-09-18T21:55:46.388Z,2.70
2017-09-18T21:58:16.521Z,2.57
2017-09-18T22:00:47.264Z,2.50
2017-09-18T22:03:16.996Z,2.57
2017-09-18T22:05:46.246Z,3.83
2017-09-18T22:08:16.282Z,2.80
2017-09-18T22:10:45.574Z,2.47
2017-09-18T22:13:15.702Z,2.80
2017-09-18T22:15:45.995Z,3.00
2017-09-18T22:18:15.414Z,2.00
2017-09-18T22:20:46.111Z,2.43
2017-09-18T22:23:15.442Z,2.07
2017-09-18T22:25:44.683Z,2.50
2017-09-18T22:28:14.028Z,2.00
2017-09-18T22:30:43.266Z,2.57
2017-09-18T22:33:12.545Z,2.70
2017-09-18T22:35:41.912Z,2.70
2017-09-18T22:38:11.166Z,2.73
2017-09-18T22:40:40.481Z,3.00
2017-09-18T22:43:09.779Z,2.83
2017-09-18T22:45:39.246Z,2.40
2017-09-18T22:48:08.572Z,3.10
2017-09-18T22:50:38.944Z,3.03
2017-09-18T22:53:08.798Z,2.73
2017-09-18T22:55:38.044Z,2.70
2017-09-18T22:58:07.355Z,3.40
2017-09-18T23:00:36.609Z,3.30
2017-09-18T23:03:05.886Z,3.70
2017-09-18T23:05:35.150Z,3.23
2017-09-18T23:08:04.428Z,3.03
2017-09-18T23:10:33.721Z,2.83
2017-09-18T23:13:02.993Z,2.60
2017-09-18T23:15:32.582Z,3.03
2017-09-18T23:18:02.575Z,2.73
2017-09-18T23:20:32.492Z,2.60
2017-09-18T23:23:01.722Z,3.00
2017-09-18T23:25:30.994Z,2.93
2017-09-18T23:28:00.229Z,3.23
2017-09-18T23:30:29.519Z,3.10
2017-09-18T23:32:58.787Z,3.50
2017-09-18T23:35:28.033Z,2.77
2017-09-18T23:37:57.299Z,2.57
2017-09-18T23:40:26.597Z,2.93
2017-09-18T23:42:55.866Z,3.00
2017-09-18T23:45:25.923Z,3.30
2017-09-18T23:47:55.181Z,2.83
2017-09-18T23:50:24.430Z,3.20
2017-09-18T23:52:53.678Z,3.13
2017-09-18T23:55:22.951Z,2.60
2017-09-18T23:57:52.211Z,2.77
